Time;durP1;ratioP1;P1;durP2;ratioP2;P2;SDS_P1;SDS_P2;PMS_P1;PMS_P2;Temp;Humidity;BMP_temperature;BMP_pressure;BME280_temperature;BME280_humidity;BME280_pressure;Samples;Min_cycle;Max_cycle;Signal;HPM_P1;HPM_P2
2023/12/04 00:04:56;;;;;;;11.67;6.00;;;;;;;;;;10376400;28;20630;-73
2023/12/04 00:09:57;;;;;;;14.67;6.30;;;;;;;;;;10369441;28;20238;-73
2023/12/04 00:14:57;;;;;;;9.63;5.20;;;;;;;;;;10369703;28;20209;-73
2023/12/04 00:19:57;;;;;;;12.47;5.30;;;;;;;;;;10369553;28;20218;-72
2023/12/04 00:24:57;;;;;;;8.60;4.87;;;;;;;;;;10375790;28;20672;-69
2023/12/04 00:29:57;;;;;;;9.63;4.80;;;;;;;;;;10369493;28;20546;-69
2023/12/04 00:34:58;;;;;;;9.17;5.20;;;;;;;;;;10368775;28;20473;-68
2023/12/04 00:39:58;;;;;;;10.03;4.83;;;;;;;;;;10375773;28;20578;-69
2023/12/04 00:44:58;;;;;;;9.20;3.57;;;;;;;;;;10368962;28;20193;-68
2023/12/04 00:49:58;;;;;;;10.00;4.90;;;;;;;;;;10368792;28;20289;-68
2023/12/04 00:54:58;;;;;;;6.87;4.53;;;;;;;;;;10368894;28;20217;-68
2023/12/04 00:59:59;;;;;;;6.40;4.03;;;;;;;;;;10382712;28;20267;-69
2023/12/04 01:04:59;;;;;;;5.50;4.17;;;;;;;;;;10376545;28;20288;-68
2023/12/04 01:09:59;;;;;;;10.40;4.07;;;;;;;;;;10375717;28;20240;-69
2023/12/04 01:15:00;;;;;;;4.93;2.57;;;;;;;;;;10376109;28;20209;-70
2023/12/04 01:20:01;;;;;;;8.03;4.07;;;;;;;;;;10382308;28;20694;-69
2023/12/04 01:25:03;;;;;;;8.40;3.87;;;;;;;;;;10375511;28;20200;-69
2023/12/04 01:30:04;;;;;;;8.67;4.37;;;;;;;;;;10381887;28;20219;-68
2023/12/04 01:35:05;;;;;;;4.20;3.27;;;;;;;;;;10371114;28;20339;-70
2023/12/04 01:40:06;;;;;;;3.50;2.57;;;;;;;;;;10381461;28;20301;-69
2023/12/04 01:45:07;;;;;;;4.83;3.00;;;;;;;;;;10374661;28;20195;-68
2023/12/04 01:50:08;;;;;;;4.33;3.73;;;;;;;;;;10374399;28;20213;-70
2023/12/04 01:55:09;;;;;;;4.00;2.67;;;;;;;;;;10374513;28;20232;-69
2023/12/04 02:00:11;;;;;;;3.47;2.80;;;;;;;;;;10379863;28;20354;-69
2023/12/04 02:05:15;;;;;;;4.10;3.13;;;;;;;;;;10374086;28;20201;-68
2023/12/04 02:10:15;;;;;;;9.37;5.03;;;;;;;;;;10373678;28;20239;-69
2023/12/04 02:15:15;;;;;;;8.50;3.97;;;;;;;;;;10380039;28;20218;-69
2023/12/04 02:20:16;;;;;;;4.78;3.08;;;;;;;;;;10373496;28;20232;-70
2023/12/04 02:25:18;;;;;;;7.90;4.10;;;;;;;;;;10373145;28;20200;-69
2023/12/04 02:30:19;;;;;;;9.57;5.13;;;;;;;;;;10373047;28;20252;-70
2023/12/04 02:35:20;;;;;;;9.73;5.70;;;;;;;;;;10379317;28;20224;-69
2023/12/04 02:40:21;;;;;;;9.33;4.97;;;;;;;;;;10372760;28;20268;-68
2023/12/04 02:45:21;;;;;;;7.37;4.93;;;;;;;;;;10372072;28;20580;-69
2023/12/04 02:50:21;;;;;;;8.93;4.07;;;;;;;;;;10372745;28;20219;-69
2023/12/04 02:55:22;;;;;;;8.47;4.40;;;;;;;;;;10378496;28;20301;-69
2023/12/04 03:00:22;;;;;;;8.95;4.80;;;;;;;;;;10372323;28;20277;-69
2023/12/04 03:05:22;;;;;;;9.63;4.50;;;;;;;;;;10371692;28;21615;-68
2023/12/04 03:10:22;;;;;;;5.20;3.33;;;;;;;;;;10371339;28;20243;-68
2023/12/04 03:15:23;;;;;;;8.33;4.63;;;;;;;;;;10377961;28;20548;-68
2023/12/04 03:20:23;;;;;;;6.67;3.27;;;;;;;;;;10370425;28;20495;-70
2023/12/04 03:25:23;;;;;;;7.13;4.60;;;;;;;;;;10371209;28;20198;-68
2023/12/04 03:30:23;;;;;;;8.63;4.67;;;;;;;;;;10373018;28;20464;-68
2023/12/04 03:35:23;;;;;;;6.83;4.47;;;;;;;;;;10374706;28;20208;-69
2023/12/04 03:40:23;;;;;;;8.97;5.20;;;;;;;;;;10370627;28;20208;-69
2023/12/04 03:45:24;;;;;;;9.47;5.30;;;;;;;;;;10370184;28;20664;-70
2023/12/04 03:50:24;;;;;;;8.30;5.13;;;;;;;;;;10376990;28;20462;-68
2023/12/04 03:55:24;;;;;;;9.17;4.50;;;;;;;;;;10369779;28;20739;-68
2023/12/04 04:00:24;;;;;;;13.60;6.50;;;;;;;;;;10370137;28;20244;-68
2023/12/04 04:05:24;;;;;;;8.80;5.70;;;;;;;;;;10369690;28;20205;-67
2023/12/04 04:10:24;;;;;;;8.03;4.97;;;;;;;;;;10376170;28;20291;-68
2023/12/04 04:15:25;;;;;;;20.20;7.40;;;;;;;;;;10369662;28;20974;-68
2023/12/04 04:20:25;;;;;;;27.70;12.53;;;;;;;;;;10369275;28;20763;-67
2023/12/04 04:25:26;;;;;;;16.80;7.60;;;;;;;;;;10369311;28;20190;-68
2023/12/04 04:30:26;;;;;;;12.07;6.43;;;;;;;;;;10376710;28;20213;-69
2023/12/04 04:35:26;;;;;;;12.97;6.37;;;;;;;;;;10382708;28;20615;-68
2023/12/04 04:40:26;;;;;;;10.70;6.17;;;;;;;;;;10378321;28;20276;-67
2023/12/04 04:45:26;;;;;;;9.83;5.87;;;;;;;;;;10378102;28;20202;-68
2023/12/04 04:50:26;;;;;;;10.63;5.70;;;;;;;;;;10382979;28;20217;-68
2023/12/04 04:55:26;;;;;;;9.20;5.40;;;;;;;;;;10377720;28;20221;-67
2023/12/04 05:00:27;;;;;;;15.10;5.83;;;;;;;;;;10377169;28;20728;-67
2023/12/04 05:05:27;;;;;;;4.83;3.53;;;;;;;;;;10379063;28;20192;-68
2023/12/04 05:10:27;;;;;;;7.03;4.20;;;;;;;;;;10379983;28;21077;-67
2023/12/04 05:15:27;;;;;;;3.93;2.20;;;;;;;;;;10376126;28;20220;-67
2023/12/04 05:20:27;;;;;;;5.37;3.30;;;;;;;;;;10378108;28;20213;-68
2023/12/04 05:25:28;;;;;;;4.77;2.67;;;;;;;;;;10381186;28;20454;-67
2023/12/04 05:30:28;;;;;;;6.10;3.30;;;;;;;;;;10376683;28;20209;-68
2023/12/04 05:35:28;;;;;;;5.60;2.80;;;;;;;;;;10376075;28;20697;-69
2023/12/04 05:40:28;;;;;;;3.15;2.53;;;;;;;;;;10376180;28;20586;-69
2023/12/04 05:45:28;;;;;;;4.27;1.93;;;;;;;;;;10380504;28;20208;-69
2023/12/04 05:50:28;;;;;;;2.20;1.70;;;;;;;;;;10377228;28;20220;-69
2023/12/04 05:55:29;;;;;;;3.57;2.07;;;;;;;;;;10375736;28;20221;-69
2023/12/04 06:00:29;;;;;;;3.50;2.50;;;;;;;;;;10375239;28;20213;-69
2023/12/04 06:05:29;;;;;;;3.70;2.53;;;;;;;;;;10380476;28;20662;-68
2023/12/04 06:10:30;;;;;;;3.70;2.57;;;;;;;;;;10374690;28;20482;-68
2023/12/04 06:15:30;;;;;;;2.77;2.00;;;;;;;;;;10375043;28;20267;-69
2023/12/04 06:20:30;;;;;;;2.23;1.40;;;;;;;;;;10376039;28;20304;-68
2023/12/04 06:25:31;;;;;;;3.07;1.90;;;;;;;;;;10379666;28;20254;-69
2023/12/04 06:30:31;;;;;;;3.40;2.43;;;;;;;;;;10374338;28;20216;-68
2023/12/04 06:35:31;;;;;;;3.30;2.27;;;;;;;;;;10373791;28;20269;-69
2023/12/04 06:40:32;;;;;;;3.93;2.23;;;;;;;;;;10376304;28;20467;-67
2023/12/04 06:45:32;;;;;;;3.27;2.40;;;;;;;;;;10376342;28;20192;-70
2023/12/04 06:50:32;;;;;;;4.37;2.10;;;;;;;;;;10373612;28;20221;-68
2023/12/04 06:55:33;;;;;;;2.83;2.27;;;;;;;;;;10371883;28;20302;-71
2023/12/04 07:00:33;;;;;;;3.23;2.17;;;;;;;;;;10378467;28;20808;-69
2023/12/04 07:05:33;;;;;;;5.83;3.40;;;;;;;;;;10372931;28;20193;-67
2023/12/04 07:10:33;;;;;;;2.33;1.93;;;;;;;;;;10372471;28;20245;-66
2023/12/04 07:15:33;;;;;;;4.57;3.13;;;;;;;;;;10372619;28;20249;-65
2023/12/04 07:20:34;;;;;;;3.87;3.00;;;;;;;;;;10377628;28;20213;-67
2023/12/04 07:25:34;;;;;;;6.00;3.03;;;;;;;;;;10372202;28;20208;-67
2023/12/04 07:30:34;;;;;;;4.93;3.20;;;;;;;;;;10371805;28;20756;-66
2023/12/04 07:35:34;;;;;;;2.60;2.00;;;;;;;;;;10372040;28;20585;-66
2023/12/04 07:40:35;;;;;;;5.80;3.00;;;;;;;;;;10374584;28;20205;-66
2023/12/04 07:45:36;;;;;;;5.27;3.33;;;;;;;;;;10368411;28;20428;-65
2023/12/04 07:50:37;;;;;;;4.33;2.87;;;;;;;;;;10368019;28;20209;-66
2023/12/04 07:55:37;;;;;;;2.90;1.97;;;;;;;;;;10367753;28;20588;-65
2023/12/04 08:00:38;;;;;;;3.60;2.40;;;;;;;;;;10372985;28;20205;-65
2023/12/04 08:05:38;;;;;;;6.20;3.20;;;;;;;;;;10367390;28;20224;-67
2023/12/04 08:10:38;;;;;;;5.90;3.07;;;;;;;;;;10366271;28;20239;-66
2023/12/04 08:15:38;;;;;;;7.97;3.83;;;;;;;;;;10370343;28;20590;-69
2023/12/04 08:20:39;;;;;;;3.63;3.10;;;;;;;;;;10369222;28;20462;-68
2023/12/04 08:25:39;;;;;;;5.17;4.00;;;;;;;;;;10367441;28;20193;-68
2023/12/04 08:30:39;;;;;;;6.53;4.00;;;;;;;;;;10366842;28;20221;-67
2023/12/04 08:35:39;;;;;;;4.57;2.80;;;;;;;;;;10366407;28;20479;-69
2023/12/04 08:40:40;;;;;;;6.33;3.27;;;;;;;;;;10364850;28;20213;-70
2023/12/04 08:45:40;;;;;;;3.70;3.03;;;;;;;;;;10366053;28;20744;-70
2023/12/04 08:50:40;;;;;;;4.67;3.20;;;;;;;;;;10365524;28;20458;-70
2023/12/04 08:55:40;;;;;;;3.43;2.70;;;;;;;;;;10365871;28;20713;-70
2023/12/04 09:00:42;;;;;;;3.47;2.13;;;;;;;;;;10365554;28;20201;-69
2023/12/04 09:05:42;;;;;;;5.77;3.00;;;;;;;;;;10367590;28;20227;-69
2023/12/04 09:10:43;;;;;;;4.50;2.47;;;;;;;;;;10364289;28;20332;-69
2023/12/04 09:15:43;;;;;;;4.03;2.33;;;;;;;;;;10368983;28;20209;-70
2023/12/04 09:20:43;;;;;;;5.93;2.57;;;;;;;;;;10375155;28;20646;-71
2023/12/04 09:25:44;;;;;;;2.07;1.67;;;;;;;;;;10373538;28;20185;-67
2023/12/04 09:30:44;;;;;;;3.67;2.80;;;;;;;;;;10373218;28;20696;-70
2023/12/04 09:35:44;;;;;;;7.10;3.00;;;;;;;;;;10378001;28;20479;-69
2023/12/04 09:40:45;;;;;;;4.53;2.87;;;;;;;;;;10373152;28;20216;-70
2023/12/04 09:45:45;;;;;;;4.73;2.70;;;;;;;;;;10371699;28;20658;-69
2023/12/04 09:50:47;;;;;;;7.67;2.87;;;;;;;;;;10375855;28;20212;-69
2023/12/04 09:55:50;;;;;;;4.03;2.87;;;;;;;;;;10373483;28;20217;-68
2023/12/04 10:00:54;;;;;;;3.97;2.20;;;;;;;;;;10372238;28;20687;-71
2023/12/04 10:05:55;;;;;;;3.50;1.93;;;;;;;;;;10370965;28;20217;-70
2023/12/04 10:10:55;;;;;;;2.22;1.80;;;;;;;;;;10376783;28;20314;-69
2023/12/04 10:15:55;;;;;;;2.47;1.90;;;;;;;;;;10369518;28;20209;-66
2023/12/04 10:20:56;;;;;;;3.50;2.37;;;;;;;;;;10370831;28;20795;-68
2023/12/04 10:25:59;;;;;;;1.77;1.50;;;;;;;;;;10370731;28;20525;-68
2023/12/04 10:31:00;;;;;;;2.07;1.97;;;;;;;;;;10374054;28;20275;-69
2023/12/04 10:36:00;;;;;;;2.10;1.67;;;;;;;;;;10369818;28;20267;-68
2023/12/04 10:41:11;;;;;;;2.17;1.93;;;;;;;;;;10367740;28;20474;-68
2023/12/04 10:46:12;;;;;;;3.10;2.10;;;;;;;;;;10373959;28;20198;-68
2023/12/04 10:51:12;;;;;;;2.17;1.73;;;;;;;;;;10372779;28;20708;-67
2023/12/04 10:56:20;;;;;;;2.93;2.07;;;;;;;;;;10369053;28;20308;-67
2023/12/04 11:01:23;;;;;;;1.70;1.60;;;;;;;;;;10377797;28;20256;-67
2023/12/04 11:06:23;;;;;;;4.87;1.93;;;;;;;;;;10370145;28;20206;-67
2023/12/04 11:11:27;;;;;;;15.23;8.73;;;;;;;;;;10372973;28;20617;-67
2023/12/04 11:16:31;;;;;;;3.80;2.30;;;;;;;;;;10368787;28;20583;-67
2023/12/04 11:21:32;;;;;;;1.67;1.57;;;;;;;;;;10367162;28;20185;-67
2023/12/04 11:26:33;;;;;;;9.33;2.03;;;;;;;;;;10373730;28;20189;-64
2023/12/04 11:31:33;;;;;;;4.30;1.93;;;;;;;;;;10368416;28;20224;-67
2023/12/04 11:36:33;;;;;;;2.87;2.20;;;;;;;;;;10367965;28;20687;-67
2023/12/04 11:41:35;;;;;;;1.87;1.67;;;;;;;;;;10367786;28;20221;-67
2023/12/04 11:46:35;;;;;;;3.10;1.60;;;;;;;;;;10373157;28;20220;-65
2023/12/04 11:51:42;;;;;;;3.63;1.50;;;;;;;;;;10366862;28;20238;-66
2023/12/04 11:56:59;;;;;;;5.17;1.70;;;;;;;;;;10368951;28;20217;-67
2023/12/04 12:01:59;;;;;;;1.43;1.33;;;;;;;;;;10366239;28;20193;-65
2023/12/04 12:07:02;;;;;;;52.67;22.87;;;;;;;;;;10371868;28;20237;-67
2023/12/04 12:12:03;;;;;;;2.57;2.10;;;;;;;;;;10367429;28;20177;-68
2023/12/04 12:17:03;;;;;;;13.77;6.17;;;;;;;;;;10366964;28;20220;-67
2023/12/04 12:22:03;;;;;;;4.93;1.67;;;;;;;;;;10367058;28;20220;-66
2023/12/04 12:27:04;;;;;;;4.97;4.07;;;;;;;;;;10368367;28;20308;-67
2023/12/04 12:32:04;;;;;;;1.30;1.20;;;;;;;;;;10367011;28;20240;-67
2023/12/04 12:37:05;;;;;;;1.20;1.10;;;;;;;;;;10366582;28;20229;-66
2023/12/04 12:42:06;;;;;;;1.50;1.17;;;;;;;;;;10371531;28;20203;-66
2023/12/04 12:47:07;;;;;;;1.00;1.00;;;;;;;;;;10366707;28;20224;-65
2023/12/04 12:52:10;;;;;;;1.03;1.03;;;;;;;;;;10368501;28;20213;-67
2023/12/04 12:57:11;;;;;;;1.00;1.00;;;;;;;;;;10373210;28;20335;-67
2023/12/04 13:02:11;;;;;;;12.07;6.10;;;;;;;;;;10384035;28;20205;-65
2023/12/04 13:07:11;;;;;;;1.70;1.17;;;;;;;;;;10373550;28;20240;-66
2023/12/04 13:12:12;;;;;;;4.07;2.87;;;;;;;;;;10373858;28;20212;-67
2023/12/04 13:17:12;;;;;;;1.00;0.97;;;;;;;;;;10373472;28;20525;-65
2023/12/04 13:22:12;;;;;;;2.90;1.60;;;;;;;;;;10378599;28;20464;-66
2023/12/04 13:27:13;;;;;;;2.50;1.30;;;;;;;;;;10371948;28;20290;-67
2023/12/04 13:32:13;;;;;;;1.50;1.40;;;;;;;;;;10373042;28;20284;-67
2023/12/04 13:37:13;;;;;;;1.30;1.20;;;;;;;;;;10369064;28;20213;-66
2023/12/04 13:47:34;;;;;;;1.53;1.43;;;;;;;;;;10371877;28;20783;-66
2023/12/04 13:52:34;;;;;;;1.83;1.50;;;;;;;;;;10372562;28;20591;-68
2023/12/04 13:57:44;;;;;;;1.40;1.30;;;;;;;;;;10374595;28;20217;-66
2023/12/04 14:02:44;;;;;;;1.43;1.27;;;;;;;;;;10372174;28;20264;-65
2023/12/04 14:07:44;;;;;;;4.43;1.67;;;;;;;;;;10371413;28;21024;-67
2023/12/04 14:12:44;;;;;;;1.67;1.57;;;;;;;;;;10369924;28;20224;-68
2023/12/04 14:17:46;;;;;;;3.50;1.80;;;;;;;;;;10376423;28;20209;-67
2023/12/04 14:22:46;;;;;;;1.67;1.53;;;;;;;;;;10371041;28;20186;-68
2023/12/04 14:27:46;;;;;;;2.20;1.80;;;;;;;;;;10370785;28;20206;-67
2023/12/04 14:32:46;;;;;;;4.93;3.27;;;;;;;;;;10368996;28;20217;-67
2023/12/04 14:37:47;;;;;;;7.83;4.37;;;;;;;;;;10375625;28;20213;-68
2023/12/04 14:42:47;;;;;;;4.20;2.57;;;;;;;;;;10370353;28;20642;-67
2023/12/04 14:47:48;;;;;;;6.13;3.03;;;;;;;;;;10369403;28;20216;-67
2023/12/04 14:52:50;;;;;;;3.00;2.33;;;;;;;;;;10370325;28;20224;-68
2023/12/04 15:09:15;;;;;;;6.00;4.00;;;;;;;;;;10368568;28;20619;-67
2023/12/04 15:13:43;;;;;;;9.97;5.20;;;;;;;;;;10367997;28;20244;-67
2023/12/04 15:23:53;;;;;;;9.43;5.97;;;;;;;;;;10368951;28;20213;-67
2023/12/04 15:28:53;;;;;;;10.43;5.53;;;;;;;;;;10373487;28;20243;-67
2023/12/04 15:33:53;;;;;;;10.50;6.20;;;;;;;;;;10368621;28;20220;-68
2023/12/04 15:38:53;;;;;;;11.80;6.67;;;;;;;;;;10367011;28;20206;-67
2023/12/04 15:43:54;;;;;;;11.40;6.93;;;;;;;;;;10367455;28;20189;-67
2023/12/04 15:48:54;;;;;;;12.10;6.73;;;;;;;;;;10371869;28;20213;-67
2023/12/04 15:53:54;;;;;;;13.07;7.87;;;;;;;;;;10374543;28;20577;-67
2023/12/04 15:58:54;;;;;;;13.70;7.63;;;;;;;;;;10367192;28;20239;-67
2023/12/04 16:03:54;;;;;;;14.33;8.57;;;;;;;;;;10366533;28;20197;-67
2023/12/04 16:08:57;;;;;;;14.03;8.83;;;;;;;;;;10364940;28;20249;-67
2023/12/04 16:13:57;;;;;;;16.63;7.87;;;;;;;;;;10366650;28;20295;-66
2023/12/04 16:18:58;;;;;;;13.20;8.33;;;;;;;;;;10365624;28;20277;-67
2023/12/04 16:23:58;;;;;;;15.10;8.93;;;;;;;;;;10365998;28;20293;-67
2023/12/04 16:28:58;;;;;;;16.73;9.90;;;;;;;;;;10378912;28;20990;-65
2023/12/04 16:33:58;;;;;;;23.47;12.93;;;;;;;;;;10374865;28;20213;-65
2023/12/04 16:38:58;;;;;;;15.97;9.20;;;;;;;;;;10364171;28;20591;-67
2023/12/04 16:43:58;;;;;;;16.97;9.23;;;;;;;;;;10372609;28;20189;-68
2023/12/04 16:48:59;;;;;;;20.83;11.30;;;;;;;;;;10375666;28;20301;-67
2023/12/04 16:53:59;;;;;;;27.57;17.27;;;;;;;;;;10372046;28;20584;-66
2023/12/04 16:58:59;;;;;;;18.27;10.97;;;;;;;;;;10373268;28;20706;-66
2023/12/04 17:03:59;;;;;;;24.13;12.27;;;;;;;;;;10378174;28;20197;-67
2023/12/04 17:08:59;;;;;;;18.77;10.50;;;;;;;;;;10371784;28;20243;-67
2023/12/04 17:14:00;;;;;;;15.60;9.43;;;;;;;;;;10373074;28;20232;-67
2023/12/04 17:19:00;;;;;;;15.10;8.97;;;;;;;;;;10375509;28;20209;-67
2023/12/04 17:24:00;;;;;;;15.53;9.47;;;;;;;;;;10376209;28;20248;-68
2023/12/04 17:29:00;;;;;;;24.23;13.80;;;;;;;;;;10376144;28;20212;-67
2023/12/04 17:34:00;;;;;;;20.83;10.70;;;;;;;;;;10376212;28;20216;-68
2023/12/04 17:39:00;;;;;;;19.50;10.40;;;;;;;;;;10375177;28;20600;-67
2023/12/04 17:44:01;;;;;;;19.90;9.93;;;;;;;;;;10376259;28;20261;-67
2023/12/04 17:49:01;;;;;;;20.00;10.60;;;;;;;;;;10374382;28;20212;-68
2023/12/04 17:54:01;;;;;;;21.70;11.27;;;;;;;;;;10375873;28;20216;-67
2023/12/04 17:59:02;;;;;;;26.50;16.63;;;;;;;;;;10374179;28;20266;-67
2023/12/04 18:04:03;;;;;;;23.07;15.57;;;;;;;;;;10380269;28;20213;-67
2023/12/04 18:09:03;;;;;;;26.57;16.80;;;;;;;;;;10374467;28;20232;-67
2023/12/04 18:14:04;;;;;;;26.17;16.70;;;;;;;;;;10374240;28;20287;-67
2023/12/04 18:19:04;;;;;;;28.20;13.23;;;;;;;;;;10372923;28;20201;-68
2023/12/04 18:24:05;;;;;;;30.73;15.50;;;;;;;;;;10378883;28;20198;-67
2023/12/04 18:29:06;;;;;;;25.60;13.43;;;;;;;;;;10373876;28;20731;-68
2023/12/04 18:34:07;;;;;;;22.63;12.50;;;;;;;;;;10373340;28;20220;-66
2023/12/04 18:39:09;;;;;;;23.00;12.80;;;;;;;;;;10378693;28;20204;-68
2023/12/04 18:44:09;;;;;;;27.43;14.57;;;;;;;;;;10373049;28;20201;-67
2023/12/04 18:49:10;;;;;;;26.67;12.53;;;;;;;;;;10371533;28;20716;-66
2023/12/04 18:54:11;;;;;;;28.57;13.67;;;;;;;;;;10371349;28;20221;-67
2023/12/04 18:59:11;;;;;;;24.70;12.73;;;;;;;;;;10373340;28;20225;-67
2023/12/04 19:04:12;;;;;;;22.77;11.90;;;;;;;;;;10381741;28;20185;-67
2023/12/04 19:09:13;;;;;;;21.63;12.10;;;;;;;;;;10376780;28;20472;-67
2023/12/04 19:14:13;;;;;;;20.13;10.50;;;;;;;;;;10368231;28;20286;-66
2023/12/04 19:19:14;;;;;;;22.03;11.17;;;;;;;;;;10376382;28;20205;-67
2023/12/04 19:24:16;;;;;;;21.50;12.57;;;;;;;;;;10370688;28;20621;-67
2023/12/04 19:29:16;;;;;;;20.03;10.20;;;;;;;;;;10370653;28;20217;-68
2023/12/04 19:34:18;;;;;;;24.70;12.40;;;;;;;;;;10370234;28;20228;-68
2023/12/04 19:39:18;;;;;;;19.80;11.40;;;;;;;;;;10375481;28;21470;-69
2023/12/04 19:44:18;;;;;;;21.57;12.33;;;;;;;;;;10370388;28;20201;-69
2023/12/04 19:49:18;;;;;;;20.43;11.80;;;;;;;;;;10370749;28;20271;-69
2023/12/04 19:54:19;;;;;;;25.47;13.50;;;;;;;;;;10371365;28;20225;-68
2023/12/04 19:59:20;;;;;;;22.20;12.07;;;;;;;;;;10375394;28;20299;-69
2023/12/04 20:04:20;;;;;;;22.20;11.83;;;;;;;;;;10370197;28;20203;-68
2023/12/04 20:09:20;;;;;;;26.97;12.73;;;;;;;;;;10369905;28;20243;-68
2023/12/04 20:14:22;;;;;;;27.60;12.80;;;;;;;;;;10375319;28;20224;-68
2023/12/04 20:19:22;;;;;;;19.80;10.83;;;;;;;;;;10370039;28;20494;-68
2023/12/04 20:24:23;;;;;;;11.70;7.17;;;;;;;;;;10369967;28;20193;-68
2023/12/04 20:29:23;;;;;;;18.33;9.77;;;;;;;;;;10369680;28;20564;-68
2023/12/04 20:34:23;;;;;;;15.60;8.30;;;;;;;;;;10374849;28;20213;-69
2023/12/04 20:39:23;;;;;;;15.90;8.00;;;;;;;;;;10369793;28;20209;-68
2023/12/04 20:44:24;;;;;;;16.67;10.03;;;;;;;;;;10369508;28;20564;-68
2023/12/04 20:49:24;;;;;;;20.83;10.90;;;;;;;;;;10369672;28;20705;-68
2023/12/04 20:54:24;;;;;;;24.90;12.40;;;;;;;;;;10374280;28;20228;-68
2023/12/04 20:59:24;;;;;;;22.83;12.03;;;;;;;;;;10369388;28;20472;-69
2023/12/04 21:04:25;;;;;;;20.30;11.60;;;;;;;;;;10369412;28;20201;-68
2023/12/04 21:09:25;;;;;;;21.53;11.13;;;;;;;;;;10369213;28;20229;-68
2023/12/04 21:14:25;;;;;;;16.10;8.93;;;;;;;;;;10378666;28;20498;-68
2023/12/04 21:19:25;;;;;;;13.40;6.67;;;;;;;;;;10376852;28;20256;-69
2023/12/04 21:24:25;;;;;;;19.33;11.23;;;;;;;;;;10376935;28;20201;-69
2023/12/04 21:29:26;;;;;;;19.37;10.83;;;;;;;;;;10377813;28;20217;-69
2023/12/04 21:34:26;;;;;;;17.37;11.40;;;;;;;;;;10380370;28;20224;-68
2023/12/04 21:39:26;;;;;;;19.83;11.20;;;;;;;;;;10375940;28;20460;-69
2023/12/04 21:44:26;;;;;;;16.07;7.87;;;;;;;;;;10376020;28;20217;-68
2023/12/04 21:49:26;;;;;;;13.53;8.07;;;;;;;;;;10380722;28;20241;-68
2023/12/04 21:54:27;;;;;;;10.93;7.13;;;;;;;;;;10375254;28;20271;-68
2023/12/04 21:59:30;;;;;;;21.57;12.97;;;;;;;;;;10375720;28;20289;-68
2023/12/04 22:04:30;;;;;;;20.03;10.27;;;;;;;;;;10374701;28;20281;-68
2023/12/04 22:09:30;;;;;;;20.93;11.97;;;;;;;;;;10380144;28;20249;-68
2023/12/04 22:14:30;;;;;;;20.73;10.40;;;;;;;;;;10374717;28;20228;-68
2023/12/04 22:19:30;;;;;;;21.60;13.40;;;;;;;;;;10374574;28;20685;-68
2023/12/04 22:24:30;;;;;;;19.57;11.80;;;;;;;;;;10374545;28;20583;-68
2023/12/04 22:29:31;;;;;;;16.83;8.93;;;;;;;;;;10379481;28;20212;-69
2023/12/04 22:34:31;;;;;;;16.53;8.20;;;;;;;;;;10374186;28;20216;-69
2023/12/04 22:39:31;;;;;;;21.60;12.00;;;;;;;;;;10373902;28;20232;-68
2023/12/04 22:44:31;;;;;;;19.23;11.07;;;;;;;;;;10373538;28;20625;-68
2023/12/04 22:49:31;;;;;;;17.10;9.47;;;;;;;;;;10378522;28;20898;-69
2023/12/04 22:54:32;;;;;;;20.15;11.10;;;;;;;;;;10373454;28;20225;-68
2023/12/04 22:59:32;;;;;;;15.67;8.83;;;;;;;;;;10374097;28;20215;-70
2023/12/04 23:04:32;;;;;;;23.60;12.20;;;;;;;;;;10375858;28;20272;-68
2023/12/04 23:09:33;;;;;;;9.27;5.87;;;;;;;;;;10375712;28;20298;-66
2023/12/04 23:14:33;;;;;;;20.93;12.47;;;;;;;;;;10372270;28;20229;-67
2023/12/04 23:19:33;;;;;;;17.63;10.73;;;;;;;;;;10372387;28;20713;-68
2023/12/04 23:24:33;;;;;;;19.87;11.17;;;;;;;;;;10377577;28;20193;-67
2023/12/04 23:29:33;;;;;;;22.23;11.33;;;;;;;;;;10372451;28;20217;-68
2023/12/04 23:34:34;;;;;;;24.93;13.57;;;;;;;;;;10370937;28;20209;-68
2023/12/04 23:39:34;;;;;;;21.60;14.10;;;;;;;;;;10371673;28;20217;-67
2023/12/04 23:44:34;;;;;;;21.90;13.57;;;;;;;;;;10376977;28;20276;-69
2023/12/04 23:49:34;;;;;;;13.10;6.93;;;;;;;;;;10371381;28;20229;-69
2023/12/04 23:54:35;;;;;;;14.90;8.90;;;;;;;;;;10371460;28;20212;-68
2023/12/04 23:59:35;;;;;;;20.73;11.93;;;;;;;;;;10370980;28;20212;-70
